This is the latest recevied weather packets stored in our database for station/object KB9HUO. If no packets are shown the sender has not sent any weather packets the latest 1 day(s).
| Time | Temp. | Humidity | Pressure | Rain* | Wind** | Luminosity | Snow |
|---|---|---|---|---|---|---|---|
| 1778005956 | 16.11° C | 94% | 1009.2 hPa | 0 mm | 2.24 m/s, 194° | 158 W/m² | - |
| 1778005652 | 15.56° C | 94% | 1009 hPa | 0 mm | 0.89 m/s, 229° | 128 W/m² | - |
| 1778005349 | 15.56° C | 94% | 1009.1 hPa | 1.27 mm | 0.89 m/s, 230° | 101 W/m² | - |
| 1778005045 | 15.56° C | 94% | 1009.1 hPa | 1.27 mm | 1.34 m/s, 247° | 90 W/m² | - |
| 1778004743 | 15.56° C | 94% | 1009.1 hPa | 0 mm | 0.45 m/s, 231° | 82 W/m² | - |
| 1778004439 | 15.56° C | 94% | 1008.8 hPa | 1.78 mm | 0.89 m/s, 223° | 82 W/m² | - |
| 1778004136 | 15.56° C | 94% | 1009 hPa | 3.05 mm | 0.89 m/s, 200° | 74 W/m² | - |
| 1778003832 | 15.56° C | 94% | 1008.8 hPa | 1.27 mm | 2.68 m/s, 203° | 85 W/m² | - |
| 1778003529 | 15.56° C | 94% | 1008.9 hPa | 1.78 mm | 0.89 m/s, 235° | 67 W/m² | - |
| 1778003225 | 15° C | 94% | 1009.2 hPa | 3.05 mm | 1.34 m/s, 223° | 70 W/m² | - |
| 1778002922 | 15° C | 94% | 1009.5 hPa | 1.27 mm | 2.24 m/s, 215° | 57 W/m² | - |
| 1778002618 | 15° C | 94% | 1009.3 hPa | 1.78 mm | 1.34 m/s, 225° | 51 W/m² | - |
| 1778002315 | 15° C | 93% | 1009.8 hPa | 3.05 mm | 1.79 m/s, 221° | 43 W/m² | - |
| 1778002012 | 15° C | 93% | 1009.7 hPa | 3.05 mm | 1.34 m/s, 199° | 49 W/m² | - |
| 1778001709 | 15° C | 93% | 1010 hPa | 3.05 mm | 0.45 m/s, 232° | 49 W/m² | - |
| 1778001409 | 15.56° C | 92% | 1010.1 hPa | 1.27 mm | 0.45 m/s, 227° | 41 W/m² | - |
| 1778001107 | 15.56° C | 92% | 1010.3 hPa | 3.05 mm | 0.89 m/s, 229° | 51 W/m² | - |
| 1778000804 | 15.56° C | 91% | 1010.1 hPa | 4.83 mm | 0.89 m/s, 231° | 50 W/m² | - |
| 1778000500 | 15.56° C | 90% | 1010.1 hPa | 4.83 mm | 0.45 m/s, 235° | 41 W/m² | - |
| 1778000200 | 15.56° C | 89% | 1010.6 hPa | 1.78 mm | 0 m/s | 36 W/m² | - |
| 1777999897 | 16.11° C | 87% | 1010.6 hPa | 1.78 mm | 0.45 m/s, 233° | 34 W/m² | - |
| 1777999592 | 16.11° C | 86% | 1010.5 hPa | 0 mm | 0 m/s | 43 W/m² | - |
| 1777999290 | 16.67° C | 84% | 1010.6 hPa | 0 mm | 0.45 m/s, 248° | 38 W/m² | - |
| 1777998988 | 16.67° C | 82% | 1010.5 hPa | 0 mm | 0 m/s | 37 W/m² | - |
| 1777998686 | 16.67° C | 82% | 1010.4 hPa | 0 mm | 0.89 m/s, 225° | 21 W/m² | - |
* Rain latest hour (hover to see other rain measurements)
** Current wind speed in m/s (hover to see current wind gust speed)